Time;durP1;ratioP1;P1;durP2;ratioP2;P2;SDS_P1;SDS_P2;PMS_P1;PMS_P2;Temp;Humidity;BMP_temperature;BMP_pressure;BME280_temperature;BME280_humidity;BME280_pressure;Samples;Min_cycle;Max_cycle;Signal;HPM_P1;HPM_P2
2022/02/25 00:01:47;;;;;;;23.60;12.90;;;;;;;2.28;97.55;148240.56;1727333;82;21053;-63
2022/02/25 00:04:15;;;;;;;26.25;15.05;;;;;;;2.26;97.64;148236.66;1727900;82;21038;-63
2022/02/25 00:06:44;;;;;;;26.62;14.18;;;;;;;2.24;97.69;148231.52;1727347;82;21290;-63
2022/02/25 00:09:12;;;;;;;28.02;13.80;;;;;;;2.22;97.73;148226.36;1728042;82;21485;-61
2022/02/25 00:11:39;;;;;;;29.80;14.53;;;;;;;2.22;97.84;148226.36;1741657;81;21045;-61
2022/02/25 00:14:07;;;;;;;27.87;15.03;;;;;;;2.21;97.88;148223.78;1718648;82;21663;-62
2022/02/25 00:16:36;;;;;;;27.62;13.72;;;;;;;2.21;98.00;148222.47;1685618;81;45822;-59
2022/02/25 00:19:05;;;;;;;25.88;13.62;;;;;;;2.21;98.07;148223.78;1727418;81;21546;-60
2022/02/25 00:25:23;;;;;;;;;;;;;;;;;;;;;
2022/02/25 00:28:01;;;;;;;27.77;13.62;;;;;;;2.16;98.24;148210.91;1725613;81;22193;-59
2022/02/25 00:30:29;;;;;;;23.47;13.43;;;;;;;2.14;98.50;148207.02;1717667;83;20965;-59
2022/02/25 00:32:57;;;;;;;27.87;13.83;;;;;;;2.12;98.63;148200.59;1707464;83;21364;-58
2022/02/25 00:35:26;;;;;;;28.42;14.15;;;;;;;2.09;98.54;148192.81;1703153;83;20875;-59
2022/02/25 00:37:54;;;;;;;25.72;13.10;;;;;;;2.10;98.57;148195.41;1708636;83;21048;-58
2022/02/25 00:40:22;;;;;;;27.52;14.58;;;;;;;2.10;98.50;148195.41;1704780;83;21061;-59
2022/02/25 00:42:51;;;;;;;27.40;14.18;;;;;;;2.12;98.42;148200.59;1716743;82;21059;-59
2022/02/25 00:45:20;;;;;;;27.13;12.82;;;;;;;2.12;98.28;148200.59;1720313;82;21252;-59
2022/02/25 00:47:48;;;;;;;32.15;14.33;;;;;;;2.13;98.16;148203.17;1719263;83;21131;-59
2022/02/25 00:50:16;;;;;;;24.52;13.38;;;;;;;2.11;98.02;148199.28;1719498;82;21059;-58
2022/02/25 00:52:43;;;;;;;24.00;12.63;;;;;;;2.12;97.89;148201.86;1715517;83;21087;-59
2022/02/25 00:55:11;;;;;;;25.17;13.50;;;;;;;2.12;97.64;148200.59;1715495;82;21043;-59
2022/02/25 00:57:49;;;;;;;27.10;14.18;;;;;;;2.12;97.38;148200.59;1717616;81;21076;-59
2022/02/25 01:00:18;;;;;;;23.70;12.73;;;;;;;2.12;97.16;148200.59;1721442;83;21118;-58
2022/02/25 01:02:44;;;;;;;28.65;13.88;;;;;;;2.12;97.10;148200.59;1717214;83;21016;-59
2022/02/25 01:05:12;;;;;;;26.75;12.80;;;;;;;2.09;97.02;148192.81;1719473;83;21122;-58
2022/02/25 01:07:41;;;;;;;25.60;12.37;;;;;;;2.07;97.04;148187.67;1721504;82;21048;-59
2022/02/25 01:10:10;;;;;;;29.57;13.98;;;;;;;2.04;97.19;148181.25;1716131;81;21041;-58
2022/02/25 01:12:37;;;;;;;27.27;13.75;;;;;;;2.05;97.17;148182.52;1724195;82;21122;-58
2022/02/25 01:15:06;;;;;;;29.77;13.83;;;;;;;2.03;97.25;148177.36;1725010;83;21109;-58
2022/02/25 01:17:33;;;;;;;25.90;13.20;;;;;;;2.01;97.37;148173.53;1645055;86;21522;-58
2022/02/25 01:20:05;;;;;;;30.37;14.20;;;;;;;1.98;97.55;148167.06;1740314;82;21077;-59
2022/02/25 01:22:32;;;;;;;29.52;13.30;;;;;;;1.94;97.64;148156.75;1733599;82;21512;-59
2022/02/25 01:24:59;;;;;;;28.83;14.43;;;;;;;1.90;97.85;148146.45;1663958;84;21476;-59
2022/02/25 01:27:25;;;;;;;30.52;14.60;;;;;;;1.87;97.98;148138.67;1738053;81;20974;-59
2022/02/25 01:29:53;;;;;;;29.05;13.48;;;;;;;1.85;98.05;148133.53;1727008;82;21055;-59
2022/02/25 01:32:19;;;;;;;29.48;14.07;;;;;;;1.82;98.25;148125.80;1717083;82;21473;-60
2022/02/25 01:34:46;;;;;;;29.60;13.53;;;;;;;1.79;98.36;148118.06;1716436;83;21738;-59
2022/02/25 01:37:13;;;;;;;29.72;14.50;;;;;;;1.81;98.58;148124.53;1716327;82;21087;-58
2022/02/25 01:39:39;;;;;;;26.00;14.28;;;;;;;1.82;98.53;148127.11;1719003;83;21081;-58
2022/02/25 01:42:07;;;;;;;33.90;14.63;;;;;;;1.84;98.37;148130.95;1728094;83;21530;-58
2022/02/25 01:44:40;;;;;;;29.75;13.35;;;;;;;1.81;98.29;148123.22;1727848;83;21025;-59
2022/02/25 01:47:08;;;;;;;25.32;13.40;;;;;;;1.79;98.24;148118.06;1728168;82;21073;-59
2022/02/25 01:49:35;;;;;;;26.55;13.98;;;;;;;1.75;98.20;148107.77;1728631;82;21113;-59
2022/02/25 01:52:09;;;;;;;28.62;14.30;;;;;;;1.73;98.16;148102.63;1727777;82;21050;-59
2022/02/25 01:54:36;;;;;;;28.55;14.05;;;;;;;1.71;98.15;148100.05;1727804;83;21121;-58
2022/02/25 01:57:04;;;;;;;26.15;13.35;;;;;;;1.68;98.05;148091.00;1727574;82;21117;-58
2022/02/25 01:59:31;;;;;;;29.57;13.90;;;;;;;1.65;97.98;148084.55;1710885;83;21052;-59
2022/02/25 02:01:58;;;;;;;31.60;14.07;;;;;;;1.64;97.93;148081.97;1684224;85;21099;-58
2022/02/25 02:04:25;;;;;;;28.47;13.48;;;;;;;1.63;97.80;148078.13;1684178;83;21097;-59
2022/02/25 02:06:52;;;;;;;32.10;13.85;;;;;;;1.62;97.73;148075.56;1702528;82;21064;-58
2022/02/25 02:09:19;;;;;;;28.73;14.07;;;;;;;1.60;97.58;148071.66;1717236;81;21010;-58
2022/02/25 02:11:48;;;;;;;23.60;12.60;;;;;;;1.60;97.40;148071.66;1727401;82;21814;-59
2022/02/25 02:14:18;;;;;;;25.27;12.70;;;;;;;1.59;97.31;148067.83;1718936;82;22113;-59
2022/02/25 02:16:46;;;;;;;33.75;13.50;;;;;;;1.60;97.23;148070.41;1699000;83;21109;-58
2022/02/25 02:19:13;;;;;;;26.27;13.53;;;;;;;1.59;97.16;148067.83;1699012;83;21066;-58
2022/02/25 02:21:45;;;;;;;31.02;13.55;;;;;;;1.60;96.94;148071.66;1698661;84;21085;-59
2022/02/25 02:24:15;;;;;;;27.40;12.88;;;;;;;1.62;96.66;148076.81;1714657;83;21072;-58
2022/02/25 02:26:43;;;;;;;27.85;12.30;;;;;;;1.61;96.16;148074.23;1728172;83;20993;-58
2022/02/25 02:29:09;;;;;;;23.05;11.78;;;;;;;1.61;95.79;148074.23;1725412;82;21124;-58
2022/02/25 02:31:37;;;;;;;23.95;12.28;;;;;;;1.61;95.48;148072.98;1716551;83;20940;-58
2022/02/25 02:34:05;;;;;;;22.80;11.48;;;;;;;1.59;95.25;148069.09;1716202;82;21789;-58
2022/02/25 02:36:31;;;;;;;23.55;12.78;;;;;;;1.57;95.08;148063.94;1716002;83;21059;-58
2022/02/25 02:38:58;;;;;;;25.48;13.05;;;;;;;1.54;94.88;148056.22;1716050;82;21109;-58
2022/02/25 02:41:25;;;;;;;24.65;13.05;;;;;;;1.51;94.86;148048.50;1654825;86;21417;-58
2022/02/25 02:43:52;;;;;;;25.92;12.55;;;;;;;1.47;94.86;148038.19;1723907;83;22212;-59
2022/02/25 02:46:19;;;;;;;27.50;13.48;;;;;;;1.42;94.88;148026.59;1655553;85;21045;-59
2022/02/25 02:48:45;;;;;;;26.93;13.08;;;;;;;1.38;94.99;148017.55;1735728;82;21101;-59
2022/02/25 02:51:12;;;;;;;26.07;13.08;;;;;;;1.35;95.06;148009.81;1726500;82;21515;-62
2022/02/25 02:53:39;;;;;;;28.52;13.13;;;;;;;1.31;95.12;147999.53;1726542;83;21057;-61
2022/02/25 02:56:06;;;;;;;29.18;13.55;;;;;;;1.28;95.29;147991.80;1728551;83;21295;-62
2022/02/25 02:58:33;;;;;;;27.00;12.70;;;;;;;1.28;95.36;147991.80;1728581;82;21010;-62
2022/02/25 03:00:59;;;;;;;30.40;13.53;;;;;;;1.28;95.30;147991.80;1728580;83;21108;-62
2022/02/25 03:03:26;;;;;;;30.15;13.25;;;;;;;1.26;95.05;147986.66;1728899;82;21801;-62
2022/02/25 03:05:53;;;;;;;26.27;13.40;;;;;;;1.25;94.90;147984.08;1728447;83;21105;-62
2022/02/25 03:08:22;;;;;;;31.05;13.40;;;;;;;1.24;94.77;147981.50;1728989;83;20934;-58
2022/02/25 03:10:49;;;;;;;23.70;12.82;;;;;;;1.21;94.63;147973.73;1722479;80;21077;-58
2022/02/25 03:13:15;;;;;;;26.33;13.30;;;;;;;1.20;94.58;147971.16;1741003;81;21046;-58
2022/02/25 03:15:44;;;;;;;31.25;13.30;;;;;;;1.19;94.51;147969.89;1740256;82;21115;-58
2022/02/25 03:18:12;;;;;;;27.27;13.25;;;;;;;1.18;94.44;147967.31;1738976;82;21607;-59
2022/02/25 03:20:40;;;;;;;25.05;12.45;;;;;;;1.17;94.37;147963.44;1736499;82;21405;-59
2022/02/25 03:23:08;;;;;;;24.75;13.03;;;;;;;1.16;94.29;147962.17;1737345;81;21001;-59
2022/02/25 03:25:35;;;;;;;30.05;13.78;;;;;;;1.14;94.22;147958.28;1727016;82;21046;-58
2022/02/25 03:28:03;;;;;;;24.07;12.88;;;;;;;1.13;94.16;147955.72;1737725;82;21628;-62
2022/02/25 03:30:30;;;;;;;24.65;12.37;;;;;;;1.13;94.08;147954.45;1739886;82;20966;-61
2022/02/25 03:32:57;;;;;;;26.55;13.35;;;;;;;1.11;93.97;147949.31;1737971;81;21035;-59
2022/02/25 03:35:23;;;;;;;28.83;13.60;;;;;;;1.09;93.88;147944.11;1737561;82;21011;-59
2022/02/25 03:37:50;;;;;;;29.98;13.08;;;;;;;1.07;93.80;147940.27;1735715;82;21082;-58
2022/02/25 03:40:17;;;;;;;23.47;12.70;;;;;;;1.06;93.75;147937.69;1739056;82;21123;-59
2022/02/25 03:42:44;;;;;;;25.43;13.00;;;;;;;1.06;93.70;147937.69;1742640;82;21058;-59
2022/02/25 03:45:11;;;;;;;26.15;12.85;;;;;;;1.04;93.65;147932.55;1738385;82;21528;-58
2022/02/25 03:47:38;;;;;;;28.25;13.75;;;;;;;1.03;93.65;147929.97;1734507;82;21106;-59
2022/02/25 03:50:06;;;;;;;29.07;13.45;;;;;;;1.01;93.67;147924.83;1737208;82;21019;-59
2022/02/25 03:52:33;;;;;;;33.18;13.20;;;;;;;1.00;93.66;147922.25;1736588;82;21759;-59
2022/02/25 03:55:00;;;;;;;25.25;13.20;;;;;;;0.97;93.66;147914.48;1737183;80;21047;-58
2022/02/25 03:57:27;;;;;;;28.45;13.32;;;;;;;0.94;93.68;147908.06;1734845;82;21046;-58
2022/02/25 03:59:55;;;;;;;29.55;14.00;;;;;;;0.92;93.75;147901.63;1742670;82;21039;-60
2022/02/25 04:02:22;;;;;;;33.67;14.73;;;;;;;0.88;93.81;147891.31;1736044;82;21070;-58
2022/02/25 04:04:49;;;;;;;27.52;13.85;;;;;;;0.83;93.86;147881.03;1741883;82;21823;-59
2022/02/25 04:07:15;;;;;;;32.95;15.50;;;;;;;0.82;93.89;147878.45;1738948;82;21106;-60
2022/02/25 04:09:43;;;;;;;31.15;13.50;;;;;;;0.79;93.96;147870.73;1737493;81;21304;-58
2022/02/25 04:12:12;;;;;;;31.90;14.90;;;;;;;0.79;93.99;147869.42;1742560;82;21125;-58
2022/02/25 04:14:38;;;;;;;30.65;14.68;;;;;;;0.77;94.03;147865.53;1735886;82;21512;-58
2022/02/25 04:17:07;;;;;;;29.00;13.83;;;;;;;0.74;94.03;147856.55;1739205;82;21141;-58
2022/02/25 04:19:34;;;;;;;29.60;14.25;;;;;;;0.68;94.12;147842.38;1737671;82;21046;-58
2022/02/25 04:22:00;;;;;;;27.80;13.70;;;;;;;0.65;94.26;147834.66;1739426;82;21029;-59
2022/02/25 04:24:27;;;;;;;32.33;14.78;;;;;;;0.62;94.35;147828.20;1739996;82;21015;-58
2022/02/25 04:26:54;;;;;;;28.90;13.83;;;;;;;0.59;94.45;147819.22;1733488;82;21125;-58
2022/02/25 04:29:21;;;;;;;34.70;13.60;;;;;;;0.55;94.47;147811.50;1737813;82;21031;-58
2022/02/25 04:31:48;;;;;;;25.95;12.78;;;;;;;0.52;94.54;147802.47;1736324;82;21078;-58
2022/02/25 04:34:15;;;;;;;30.77;13.75;;;;;;;0.46;94.61;147788.30;1738062;82;21531;-59
2022/02/25 04:36:41;;;;;;;31.25;14.58;;;;;;;0.43;94.71;147780.58;1738828;82;21599;-60
2022/02/25 04:39:08;;;;;;;36.28;15.63;;;;;;;0.37;94.81;147765.14;1736231;82;21039;-58
2022/02/25 04:41:36;;;;;;;33.65;14.63;;;;;;;0.32;94.90;147752.23;1735553;82;22335;-58
2022/02/25 04:44:03;;;;;;;32.70;15.70;;;;;;;0.25;95.15;147736.80;1736937;82;21532;-58
2022/02/25 04:46:32;;;;;;;34.10;15.30;;;;;;;0.20;95.32;147723.94;1739344;82;20919;-60
2022/02/25 04:48:59;;;;;;;34.73;14.98;;;;;;;0.15;95.52;147711.08;1742045;82;21042;-58
2022/02/25 04:51:27;;;;;;;33.08;15.78;;;;;;;0.13;95.72;147705.94;1741072;82;21070;-60
2022/02/25 04:53:55;;;;;;;30.68;15.03;;;;;;;0.08;96.01;147693.03;1736031;82;21133;-58
2022/02/25 04:56:21;;;;;;;29.87;14.18;;;;;;;0.06;96.33;147687.87;1739554;82;21082;-58
2022/02/25 04:58:49;;;;;;;28.30;13.65;;;;;;;0.05;96.53;147685.31;1738303;82;21458;-58
2022/02/25 05:01:16;;;;;;;35.70;15.32;;;;;;;0.07;96.84;147690.45;1739063;82;21109;-59
2022/02/25 05:03:42;;;;;;;30.17;14.53;;;;;;;0.10;96.98;147698.17;1736380;82;21105;-58
2022/02/25 05:06:09;;;;;;;23.27;11.65;;;;;;;0.17;97.06;147716.22;1741106;82;21508;-59
2022/02/25 05:08:37;;;;;;;30.20;13.70;;;;;;;0.23;97.07;147731.66;1741334;82;21011;-58
2022/02/25 05:11:03;;;;;;;32.95;14.23;;;;;;;0.30;96.92;147747.09;1740933;81;21032;-59
2022/02/25 05:13:31;;;;;;;29.80;13.45;;;;;;;0.35;96.77;147760.00;1715497;82;21537;-59
2022/02/25 05:21:28;;;;;;;;;;;;;;;0.66;96.42;147837.23;1706412;82;20965;-58
2022/02/25 05:23:55;;;;;;;30.92;15.13;;;;;;;0.87;96.04;147890.02;1712732;83;20203;-58
2022/02/25 05:26:22;;;;;;;24.82;12.90;;;;;;;0.96;95.30;147913.22;1713327;83;21451;-58
2022/02/25 05:28:49;;;;;;;25.97;13.18;;;;;;;1.00;94.10;147922.25;1712276;82;21075;-59
2022/02/25 05:31:15;;;;;;;28.45;13.43;;;;;;;0.98;93.67;147918.37;1705444;83;21632;-59
2022/02/25 05:33:42;;;;;;;29.60;14.70;;;;;;;1.00;93.62;147922.25;1712199;83;21123;-59
2022/02/25 05:36:09;;;;;;;28.70;14.40;;;;;;;1.04;93.24;147931.23;1714011;83;21045;-59
2022/02/25 05:38:36;;;;;;;32.98;14.90;;;;;;;1.04;92.74;147932.55;1713805;82;21575;-58
2022/02/25 05:41:03;;;;;;;30.12;14.25;;;;;;;1.01;92.68;147924.83;1713740;83;21178;-59
2022/02/25 05:43:30;;;;;;;38.58;14.85;;;;;;;1.04;92.89;147932.55;1711986;82;21597;-59
2022/02/25 05:45:56;;;;;;;26.93;13.75;;;;;;;1.13;92.94;147955.72;1712613;83;21075;-59
2022/02/25 05:48:24;;;;;;;27.25;13.45;;;;;;;1.23;92.58;147980.19;1713437;83;21060;-58
2022/02/25 05:50:50;;;;;;;25.40;13.60;;;;;;;1.35;92.24;148008.56;1712360;83;21100;-58
2022/02/25 05:53:17;;;;;;;26.25;14.58;;;;;;;1.45;91.96;148033.05;1714140;83;20973;-58
2022/02/25 05:55:44;;;;;;;28.30;13.28;;;;;;;1.57;91.58;148063.94;1713919;82;21522;-58
2022/02/25 05:58:12;;;;;;;26.95;13.38;;;;;;;1.70;91.08;148097.47;1719108;81;21143;-59
2022/02/25 06:00:38;;;;;;;33.25;13.10;;;;;;;1.82;90.38;148125.80;1714342;83;21036;-59
2022/02/25 06:03:05;;;;;;;31.10;13.65;;;;;;;1.94;89.61;148155.44;1713960;81;21457;-58
2022/02/25 06:05:32;;;;;;;27.67;14.30;;;;;;;2.07;89.58;148187.67;1714100;83;20948;-58
2022/02/25 06:08:00;;;;;;;24.30;13.58;;;;;;;2.19;88.96;148218.62;1714012;81;21572;-60
2022/02/25 06:10:27;;;;;;;29.20;14.18;;;;;;;2.32;88.36;148249.55;1740902;81;21613;-60
2022/02/25 06:12:54;;;;;;;27.65;13.93;;;;;;;2.45;88.06;148283.09;1730617;81;21060;-59
2022/02/25 06:15:21;;;;;;;25.15;13.15;;;;;;;2.56;87.05;148310.17;1728836;82;21070;-59
2022/02/25 06:17:50;;;;;;;28.40;14.18;;;;;;;2.65;86.82;148332.11;1728235;83;21053;-60
2022/02/25 06:20:18;;;;;;;25.77;13.43;;;;;;;2.74;86.59;148355.31;1725398;82;20984;-59
2022/02/25 06:22:46;;;;;;;29.52;14.18;;;;;;;2.84;85.96;148381.12;1716629;82;21053;-59
2022/02/25 06:25:13;;;;;;;25.20;12.63;;;;;;;2.95;85.54;148408.22;1721544;83;21517;-59
2022/02/25 06:27:40;;;;;;;25.48;13.22;;;;;;;3.02;84.80;148425.00;1728658;82;21566;-58
2022/02/25 06:30:09;;;;;;;27.85;13.95;;;;;;;3.09;84.81;148443.05;1723139;81;21032;-59
2022/02/25 06:32:37;;;;;;;29.20;14.53;;;;;;;3.15;84.44;148458.52;1718530;83;21977;-59
2022/02/25 06:35:05;;;;;;;25.62;13.68;;;;;;;3.24;84.32;148480.45;1722013;83;21774;-59
2022/02/25 06:37:33;;;;;;;26.50;13.40;;;;;;;3.32;83.80;148499.81;1724234;83;20973;-58
2022/02/25 06:39:59;;;;;;;27.80;12.50;;;;;;;3.40;83.54;148520.45;1728534;83;21026;-58
2022/02/25 06:42:26;;;;;;;26.70;13.30;;;;;;;3.49;83.09;148541.12;1728821;83;20988;-58
2022/02/25 06:44:52;;;;;;;24.67;14.10;;;;;;;3.55;82.71;148556.61;1698396;84;21769;-59
2022/02/25 06:47:19;;;;;;;29.67;15.03;;;;;;;3.63;82.51;148577.25;1737833;82;21121;-60
2022/02/25 06:49:46;;;;;;;27.42;14.33;;;;;;;3.69;81.69;148591.45;1693004;84;21045;-58
2022/02/25 06:52:12;;;;;;;28.45;14.18;;;;;;;3.70;81.31;148595.34;1730235;82;22096;-58
2022/02/25 06:54:39;;;;;;;28.77;14.23;;;;;;;3.75;81.62;148605.66;1717340;82;21070;-58
2022/02/25 06:57:06;;;;;;;26.97;13.53;;;;;;;3.87;81.58;148636.67;1716060;83;21071;-58
2022/02/25 06:59:34;;;;;;;30.17;15.03;;;;;;;4.09;81.21;148692.16;1727431;83;20992;-59
2022/02/25 07:02:03;;;;;;;26.62;14.15;;;;;;;4.09;81.21;148692.16;1682852;84;21043;-59
2022/02/25 07:04:29;;;;;;;26.73;14.45;;;;;;;4.18;80.06;148714.13;1721299;83;21408;-60
2022/02/25 07:06:56;;;;;;;31.52;14.68;;;;;;;4.25;78.95;148732.19;1717083;81;21317;-58
2022/02/25 07:09:23;;;;;;;24.27;13.48;;;;;;;4.30;78.87;148745.09;1717911;83;21517;-59
2022/02/25 07:11:50;;;;;;;26.40;13.90;;;;;;;4.38;78.46;148764.47;1725813;83;21657;-59
2022/02/25 07:14:17;;;;;;;29.05;14.45;;;;;;;4.51;77.27;148795.50;1714371;81;21080;-59
2022/02/25 07:16:44;;;;;;;26.50;14.70;;;;;;;4.51;77.27;148795.50;1677695;84;21088;-58
2022/02/25 07:19:11;;;;;;;31.27;14.53;;;;;;;4.53;76.57;148801.97;1707383;81;21560;-58
2022/02/25 07:21:37;;;;;;;27.45;13.48;;;;;;;4.59;76.56;148817.45;1716259;81;21121;-58
2022/02/25 07:24:05;;;;;;;25.00;13.03;;;;;;;4.65;75.60;148830.36;1720714;81;21513;-58
2022/02/25 07:26:32;;;;;;;25.92;13.20;;;;;;;4.68;75.25;148839.42;1727911;83;21467;-61
2022/02/25 07:28:59;;;;;;;27.10;12.73;;;;;;;4.80;74.76;148867.81;1723557;82;21045;-63
2022/02/25 07:31:26;;;;;;;25.70;14.10;;;;;;;4.91;73.76;148894.95;1725876;83;20947;-62
2022/02/25 07:33:53;;;;;;;27.00;12.93;;;;;;;4.99;73.69;148915.66;1720518;83;21819;-62
2022/02/25 07:36:19;;;;;;;27.32;12.75;;;;;;;4.99;73.69;148915.66;1720548;83;21111;-63
2022/02/25 07:38:46;;;;;;;23.18;11.78;;;;;;;5.19;72.54;148964.72;1717952;82;21095;-62
2022/02/25 07:41:12;;;;;;;20.60;12.00;;;;;;;5.19;72.54;148964.72;1725156;83;21080;-63
2022/02/25 07:43:40;;;;;;;21.15;12.50;;;;;;;5.24;71.83;148977.69;1721035;83;20997;-63
2022/02/25 07:46:06;;;;;;;25.62;12.40;;;;;;;5.28;70.92;148988.02;1723471;83;21081;-62
2022/02/25 07:48:33;;;;;;;19.07;11.25;;;;;;;5.28;70.92;148988.02;1726108;82;21424;-64
2022/02/25 07:51:00;;;;;;;19.70;11.10;;;;;;;5.33;69.51;149000.92;1728003;83;21026;-63
2022/02/25 07:53:30;;;;;;;23.07;11.73;;;;;;;5.30;69.63;148994.50;1713681;83;21048;-63
2022/02/25 07:55:55;;;;;;;19.45;10.82;;;;;;;5.33;69.66;149000.92;1707367;83;21120;-63
2022/02/25 07:58:22;;;;;;;20.10;10.55;;;;;;;5.41;68.35;149021.59;1711464;83;21099;-62
2022/02/25 08:00:49;;;;;;;19.82;11.18;;;;;;;5.45;67.97;149031.97;1711535;83;21056;-62
2022/02/25 08:03:16;;;;;;;18.15;9.83;;;;;;;5.45;67.09;149031.97;1700782;83;21379;-62
2022/02/25 08:05:42;;;;;;;20.72;11.00;;;;;;;5.47;66.35;149034.56;1709885;83;21122;-62
2022/02/25 08:08:09;;;;;;;25.05;11.48;;;;;;;5.47;65.66;149035.81;1711087;83;22037;-63
2022/02/25 08:10:36;;;;;;;22.30;10.18;;;;;;;5.51;65.51;149046.16;1728795;81;21125;-62
2022/02/25 08:13:05;;;;;;;17.75;9.98;;;;;;;5.57;65.69;149060.39;1681056;83;21619;-64
2022/02/25 08:15:35;;;;;;;26.77;10.75;;;;;;;5.66;65.00;149082.38;1671845;85;21074;-62
2022/02/25 08:18:04;;;;;;;19.80;9.58;;;;;;;5.71;64.53;149095.28;1681018;83;21077;-64
2022/02/25 08:20:32;;;;;;;23.15;11.08;;;;;;;5.78;63.38;149112.11;1646266;86;21026;-62
2022/02/25 08:23:01;;;;;;;20.68;9.98;;;;;;;5.81;62.77;149121.17;1697289;82;21613;-62
2022/02/25 08:25:30;;;;;;;24.90;9.95;;;;;;;5.85;62.31;149130.19;1645085;86;21096;-63
2022/02/25 08:27:56;;;;;;;20.05;8.70;;;;;;;5.88;61.58;149139.25;1707346;82;21068;-61
2022/02/25 08:30:23;;;;;;;21.65;9.55;;;;;;;5.93;61.49;149150.91;1690201;83;21091;-63
2022/02/25 08:32:50;;;;;;;17.37;9.20;;;;;;;6.01;60.99;149170.36;1706091;83;22155;-60
2022/02/25 08:35:18;;;;;;;30.95;9.40;;;;;;;6.10;60.31;149192.36;1715101;83;21827;-59
2022/02/25 08:37:45;;;;;;;19.02;9.03;;;;;;;6.13;58.65;149201.38;1712796;82;21094;-58
2022/02/25 08:40:14;;;;;;;19.20;10.55;;;;;;;6.14;58.41;149203.97;1712734;83;21087;-59
2022/02/25 08:42:41;;;;;;;21.35;10.75;;;;;;;6.13;58.69;149200.11;1712763;82;21079;-59
2022/02/25 08:45:10;;;;;;;17.77;9.58;;;;;;;6.14;58.73;149202.69;1714224;83;21056;-59
2022/02/25 08:47:37;;;;;;;16.80;8.78;;;;;;;6.16;58.64;149209.13;1715246;81;21110;-59
2022/02/25 08:50:05;;;;;;;15.80;8.80;;;;;;;6.25;58.17;149229.84;1703499;83;21421;-58
2022/02/25 08:52:33;;;;;;;15.32;8.45;;;;;;;6.32;57.68;149246.69;1706807;83;21495;-59
2022/02/25 08:55:00;;;;;;;20.25;8.83;;;;;;;6.39;56.85;149266.05;1716086;83;21052;-59
2022/02/25 08:57:27;;;;;;;23.45;10.35;;;;;;;6.48;56.72;149288.03;1718989;83;21029;-59
2022/02/25 08:59:53;;;;;;;34.18;8.70;;;;;;;6.52;55.69;149298.44;1685573;85;21539;-62
2022/02/25 09:02:20;;;;;;;17.32;7.75;;;;;;;6.58;54.42;149313.94;1715475;82;21009;-63
2022/02/25 09:04:47;;;;;;;17.90;6.30;;;;;;;6.62;53.93;149322.97;1713179;83;21567;-60
2022/02/25 09:07:15;;;;;;;12.90;6.92;;;;;;;6.68;51.72;149337.20;1713294;82;21047;-59
2022/02/25 09:09:42;;;;;;;16.00;7.03;;;;;;;6.76;50.96;149357.94;1713978;82;21029;-59
2022/02/25 09:12:12;;;;;;;15.18;5.85;;;;;;;6.84;51.57;149378.63;1717986;83;21096;-62
2022/02/25 09:14:38;;;;;;;11.22;5.10;;;;;;;6.92;49.77;149396.73;1738495;81;20951;-62
2022/02/25 09:17:07;;;;;;;11.20;4.75;;;;;;;6.95;47.13;149404.48;1738545;82;21009;-63
2022/02/25 09:19:34;;;;;;;13.40;6.95;;;;;;;6.96;47.49;149407.08;1735383;82;21115;-63
2022/02/25 09:22:01;;;;;;;15.98;7.67;;;;;;;6.95;49.93;149405.81;1733523;82;21094;-63
2022/02/25 09:24:27;;;;;;;12.98;7.25;;;;;;;6.93;51.02;149400.63;1733961;82;21494;-63
2022/02/25 09:26:54;;;;;;;15.65;8.23;;;;;;;6.94;52.10;149401.91;1733180;82;21078;-64
2022/02/25 09:29:20;;;;;;;16.82;7.47;;;;;;;7.00;52.95;149417.47;1734515;82;21075;-63
2022/02/25 09:31:47;;;;;;;16.20;7.90;;;;;;;7.08;52.53;149438.16;1737303;82;21591;-63
2022/02/25 09:34:17;;;;;;;19.73;7.25;;;;;;;7.12;51.89;149448.50;1738383;82;21046;-64
2022/02/25 09:36:44;;;;;;;14.40;7.65;;;;;;;7.15;51.64;149456.25;1733171;82;21216;-60
2022/02/25 09:39:11;;;;;;;14.13;7.45;;;;;;;7.12;52.07;149448.50;1736830;82;21081;-60
2022/02/25 09:41:38;;;;;;;12.90;7.10;;;;;;;7.09;51.35;149440.75;1738677;82;21043;-60
2022/02/25 09:44:10;;;;;;;13.18;7.28;;;;;;;7.08;51.47;149438.16;1734685;81;21075;-58
2022/02/25 09:46:34;;;;;;;12.07;6.28;;;;;;;7.09;50.11;149440.75;1701306;84;21050;-62
2022/02/25 09:49:01;;;;;;;13.08;6.87;;;;;;;7.13;49.95;149451.09;1720655;83;21124;-58
2022/02/25 09:51:28;;;;;;;12.35;6.65;;;;;;;7.15;50.27;149456.25;1718865;82;22249;-61
2022/02/25 09:53:55;;;;;;;14.60;6.75;;;;;;;7.22;50.58;149471.83;1723969;83;21084;-60
2022/02/25 09:56:25;;;;;;;15.75;7.47;;;;;;;7.30;50.50;149493.84;1724349;83;21088;-59
2022/02/25 09:58:52;;;;;;;17.87;7.67;;;;;;;7.39;50.45;149515.80;1723564;83;21081;-60
2022/02/25 10:01:19;;;;;;;17.62;7.28;;;;;;;7.47;49.93;149533.95;1724453;81;21087;-59
2022/02/25 10:03:52;;;;;;;14.15;7.28;;;;;;;7.50;50.03;149541.72;1723776;81;21052;-59
2022/02/25 10:06:19;;;;;;;15.40;8.78;;;;;;;7.48;50.03;149536.55;1724078;83;21032;-58
2022/02/25 10:08:45;;;;;;;13.28;7.65;;;;;;;7.45;50.41;149530.06;1723612;83;21071;-62
2022/02/25 10:11:12;;;;;;;17.62;8.50;;;;;;;7.44;51.17;149528.78;1727339;81;21308;-64
2022/02/25 10:13:40;;;;;;;11.48;7.28;;;;;;;7.45;51.93;149531.38;1722507;82;22003;-63
2022/02/25 10:16:10;;;;;;;19.05;8.93;;;;;;;7.48;49.65;149536.55;1719099;83;21041;-63
2022/02/25 10:18:49;;;;;;;23.85;10.38;;;;;;;7.50;49.82;149541.72;1721447;82;21061;-62
2022/02/25 10:21:18;;;;;;;20.65;10.50;;;;;;;7.51;50.89;149544.31;1670601;83;21065;-62
2022/02/25 10:23:46;;;;;;;23.50;10.85;;;;;;;7.54;51.84;149552.06;1679342;83;21111;-62
2022/02/25 10:26:19;;;;;;;17.40;8.90;;;;;;;7.62;52.13;149572.77;1713982;83;21063;-62
2022/02/25 10:28:52;;;;;;;15.53;9.67;;;;;;;7.68;51.50;149587.03;1726855;83;21539;-63
2022/02/25 10:31:29;;;;;;;19.95;9.70;;;;;;;7.72;51.37;149597.37;1724068;81;21299;-63
2022/02/25 10:34:11;;;;;;;21.48;11.00;;;;;;;7.71;51.56;149594.78;1725611;83;21097;-62
2022/02/25 10:36:47;;;;;;;24.77;11.43;;;;;;;7.77;51.36;149609.05;1722050;83;21443;-59
2022/02/25 10:39:24;;;;;;;16.60;8.83;;;;;;;7.78;51.28;149611.62;1719481;81;21641;-62
2022/02/25 10:42:19;;;;;;;15.80;7.95;;;;;;;7.77;50.80;149610.36;1723483;83;21289;-62
2022/02/25 10:44:49;;;;;;;20.23;7.78;;;;;;;7.81;49.32;149619.39;1722131;83;21574;-62
2022/02/25 10:47:27;;;;;;;14.20;8.15;;;;;;;7.84;49.32;149627.16;1716820;83;21035;-62
2022/02/25 10:50:01;;;;;;;15.80;7.37;;;;;;;7.86;49.91;149633.66;1726814;83;21499;-63
2022/02/25 10:52:32;;;;;;;13.58;7.00;;;;;;;7.95;49.10;149655.67;1729516;82;21158;-60
2022/02/25 10:55:01;;;;;;;13.32;7.20;;;;;;;8.01;48.69;149669.94;1720066;83;21069;-59
2022/02/25 10:57:28;;;;;;;11.18;6.42;;;;;;;8.05;48.62;149678.97;1728254;83;21053;-60
2022/02/25 10:59:57;;;;;;;16.35;7.33;;;;;;;8.05;47.56;149678.97;1713134;81;21042;-58
2022/02/25 11:02:35;;;;;;;9.23;5.30;;;;;;;8.06;48.31;149681.55;1706124;81;21124;-60
2022/02/25 11:05:16;;;;;;;10.75;5.28;;;;;;;8.11;46.94;149695.81;1724146;82;21103;-66
2022/02/25 11:07:47;;;;;;;8.38;5.25;;;;;;;8.13;47.15;149699.72;1703293;82;21162;-59
2022/02/25 11:10:17;;;;;;;13.03;5.30;;;;;;;8.09;46.49;149689.38;1720946;83;21120;-60
2022/02/25 11:12:45;;;;;;;12.73;5.83;;;;;;;8.07;47.25;149684.14;1719407;83;21085;-59
2022/02/25 11:15:16;;;;;;;9.15;5.50;;;;;;;8.14;47.48;149703.58;1738162;82;21038;-63
2022/02/25 11:17:44;;;;;;;12.80;5.22;;;;;;;8.25;47.28;149730.78;1726722;82;21092;-62
2022/02/25 11:20:12;;;;;;;11.05;5.05;;;;;;;8.34;46.64;149751.53;1738516;81;21090;-64
2022/02/25 11:22:41;;;;;;;10.45;5.35;;;;;;;8.36;46.28;149756.72;1737443;82;21426;-62
2022/02/25 11:25:15;;;;;;;11.63;6.00;;;;;;;8.34;46.66;149752.81;1736970;82;21109;-61
2022/02/25 11:27:43;;;;;;;9.43;5.08;;;;;;;8.36;46.80;149757.98;1737734;82;21504;-59
2022/02/25 11:30:23;;;;;;;9.93;5.30;;;;;;;8.38;46.76;149761.89;1725186;82;21184;-59
2022/02/25 11:33:06;;;;;;;10.85;5.03;;;;;;;8.41;47.12;149770.98;1726076;82;21546;-59
2022/02/25 11:35:54;;;;;;;9.90;5.37;;;;;;;8.51;46.74;149794.33;1739365;82;21066;-62